createdAt,value
2023-02-02T05:47:36.641Z,1.80
2023-02-02T05:50:04.667Z,1.98
2023-02-02T05:52:35.672Z,2.80
2023-02-02T05:55:04.059Z,2.30
2023-02-02T05:57:32.171Z,2.05
2023-02-02T06:00:00.110Z,2.28
2023-02-02T06:02:28.113Z,2.50
2023-02-02T06:04:57.424Z,1.95
2023-02-02T06:07:25.415Z,2.40
2023-02-02T06:09:53.348Z,2.08
2023-02-02T06:12:21.338Z,2.22
2023-02-02T06:14:49.238Z,2.20
2023-02-02T06:17:17.372Z,1.83
2023-02-02T06:19:45.446Z,1.85
2023-02-02T06:22:14.744Z,2.30
2023-02-02T06:24:42.743Z,2.63
2023-02-02T06:27:10.723Z,2.22
2023-02-02T06:29:38.690Z,2.13
2023-02-02T06:32:06.638Z,2.38
2023-02-02T06:34:34.581Z,2.50
2023-02-02T06:37:02.599Z,2.30
2023-02-02T06:39:31.872Z,2.53
2023-02-02T06:42:08.854Z,2.58
2023-02-02T06:44:43.642Z,2.60
2023-02-02T06:47:11.617Z,2.65
2023-02-02T06:49:39.557Z,2.33
2023-02-02T06:52:08.594Z,2.22
2023-02-02T06:54:37.899Z,2.70
2023-02-02T06:57:05.999Z,2.28
2023-02-02T06:59:33.950Z,2.78
2023-02-02T07:02:01.958Z,2.25
2023-02-02T07:04:30.035Z,3.00
2023-02-02T07:06:57.980Z,2.45
2023-02-02T07:09:25.932Z,3.03
2023-02-02T07:11:55.254Z,3.65
2023-02-02T07:14:23.183Z,3.22
2023-02-02T07:16:51.067Z,2.90
2023-02-02T07:19:19.282Z,3.00
2023-02-02T07:21:47.267Z,3.25
2023-02-02T07:24:15.205Z,3.00
2023-02-02T07:26:43.208Z,3.17
2023-02-02T07:29:14.198Z,2.30
2023-02-02T07:31:42.651Z,2.90
2023-02-02T07:34:10.628Z,2.55
2023-02-02T07:36:38.641Z,3.17
2023-02-02T07:39:07.791Z,2.70
2023-02-02T07:41:37.130Z,2.70
2023-02-02T07:44:07.229Z,2.58
2023-02-02T15:02:37.445Z,3.20
2023-02-02T15:05:46.053Z,2.33
2023-02-02T15:08:22.207Z,2.90
2023-02-02T15:11:22.527Z,2.72
2023-02-02T15:13:55.347Z,2.63
2023-02-02T15:16:28.547Z,2.53
2023-02-02T15:19:06.312Z,2.45
2023-02-02T15:21:37.333Z,2.20
2023-02-02T15:24:07.830Z,2.45
2023-02-02T15:26:42.823Z,2.78
2023-02-02T15:29:20.099Z,2.30
2023-02-02T15:31:51.089Z,2.10
2023-02-02T15:34:25.201Z,2.20
2023-02-02T15:36:55.839Z,2.78
2023-02-02T15:39:30.967Z,2.45
2023-02-02T15:42:19.513Z,2.63
2023-02-02T15:44:47.489Z,2.40
2023-02-02T15:47:18.811Z,2.50
2023-02-02T15:49:48.660Z,2.30
2023-02-02T15:52:22.096Z,4.90
2023-02-02T15:54:53.679Z,2.80
2023-02-02T15:57:29.706Z,2.78
2023-02-02T15:59:58.553Z,2.90
2023-02-02T16:02:35.173Z,2.58
2023-02-02T16:05:25.244Z,3.25
2023-02-02T16:08:05.095Z,2.80
2023-02-02T16:10:34.681Z,2.72
2023-02-02T16:13:03.231Z,2.75
2023-02-02T16:15:32.987Z,2.80
2023-02-02T16:18:02.128Z,2.40
2023-02-02T16:20:34.735Z,2.50
2023-02-02T16:23:06.821Z,2.70
2023-02-02T16:25:40.385Z,2.40
2023-02-02T16:28:12.603Z,2.83
2023-02-02T16:30:41.326Z,2.30
2023-02-02T16:33:35.064Z,2.70
2023-02-02T16:36:12.373Z,2.55
2023-02-02T16:38:40.591Z,2.53
2023-02-02T16:41:11.430Z,2.88
2023-02-02T16:43:42.933Z,2.40
2023-02-02T16:46:13.423Z,2.92
2023-02-02T16:48:44.090Z,2.80
2023-02-02T16:51:29.584Z,2.78
2023-02-02T16:54:02.874Z,2.88
2023-02-02T16:56:34.043Z,3.03
2023-02-02T16:59:05.446Z,3.80
2023-02-02T17:01:37.657Z,3.20
2023-02-02T17:04:07.306Z,3.50
2023-02-02T17:06:51.339Z,3.67
2023-02-02T17:09:41.062Z,3.50
2023-02-02T17:12:33.768Z,3.78
2023-02-02T17:15:05.081Z,4.20
2023-02-02T17:17:33.085Z,5.95
2023-02-02T17:20:01.920Z,3.60
2023-02-02T17:22:32.990Z,4.70
2023-02-02T17:25:01.102Z,4.20
2023-02-02T17:27:33.812Z,4.35
2023-02-02T17:30:02.833Z,5.57
2023-02-02T17:32:30.808Z,4.40
2023-02-02T17:34:58.841Z,6.53
2023-02-02T17:37:26.875Z,3.75
2023-02-02T17:39:56.569Z,3.45
2023-02-02T17:42:27.156Z,4.50
2023-02-02T17:44:55.237Z,3.63
2023-02-02T17:47:23.252Z,4.13
2023-02-02T17:49:51.249Z,3.58
2023-02-02T17:52:19.771Z,3.42
2023-02-02T17:54:47.793Z,3.70
2023-02-02T17:57:17.119Z,3.85
2023-02-02T17:59:45.086Z,4.22
2023-02-02T18:02:16.410Z,8.07
2023-02-02T18:04:45.715Z,16.73
2023-02-02T18:07:13.876Z,7.32
2023-02-02T18:09:42.024Z,6.32
2023-02-02T18:12:09.997Z,5.97
2023-02-02T18:14:39.816Z,4.10
2023-02-02T18:17:09.045Z,4.03
2023-02-02T18:19:39.123Z,4.45
2023-02-02T18:22:07.597Z,4.50
2023-02-02T18:24:35.771Z,4.47
2023-02-02T18:27:03.798Z,4.22
2023-02-02T18:29:31.869Z,4.43
2023-02-02T18:32:01.277Z,4.13
2023-02-02T18:34:31.196Z,3.75
2023-02-02T18:37:01.425Z,3.85
2023-02-02T18:39:29.670Z,3.60
2023-02-02T18:41:58.258Z,4.07
2023-02-02T18:44:26.915Z,3.85
2023-02-02T18:46:54.964Z,3.50
2023-02-02T18:49:24.501Z,4.13
2023-02-02T18:51:52.569Z,5.00
2023-02-02T18:54:20.959Z,3.53
2023-02-02T18:56:49.163Z,4.40
2023-02-02T18:59:17.422Z,4.60
2023-02-02T19:01:45.430Z,4.45
2023-02-02T19:04:13.547Z,3.15
2023-02-02T19:07:00.272Z,3.67
2023-02-02T19:09:28.362Z,5.45
2023-02-02T19:11:56.816Z,3.40
2023-02-02T19:14:28.564Z,3.00
2023-02-02T19:17:02.086Z,3.13
2023-02-02T19:19:33.444Z,3.30
2023-02-02T19:22:07.142Z,3.78
2023-02-02T19:24:40.274Z,4.22
2023-02-02T19:27:18.150Z,3.40
2023-02-02T19:29:47.545Z,4.00
2023-02-02T19:32:18.241Z,3.97
2023-02-02T19:34:46.822Z,3.75
2023-02-02T19:37:23.984Z,4.30
2023-02-02T19:39:52.199Z,4.60
2023-02-02T19:42:20.292Z,3.28
2023-02-02T19:44:48.240Z,4.53
2023-02-02T19:47:25.892Z,4.10
2023-02-02T19:49:54.191Z,4.57
2023-02-02T19:52:26.697Z,3.90
2023-02-02T19:54:55.435Z,3.72
2023-02-02T19:57:33.750Z,4.00
2023-02-02T20:00:12.270Z,3.40
2023-02-02T20:02:49.688Z,3.70
2023-02-02T20:05:22.393Z,3.92
2023-02-02T20:07:59.063Z,3.60
2023-02-02T20:10:30.225Z,3.50
2023-02-02T20:12:58.296Z,3.60
2023-02-02T20:15:34.066Z,3.83
2023-02-02T20:18:04.255Z,3.28
2023-02-02T20:20:38.018Z,3.35
2023-02-02T20:23:23.649Z,3.17
2023-02-02T20:25:51.853Z,3.05
2023-02-02T20:28:33.355Z,3.70
2023-02-02T20:31:04.551Z,3.60
2023-02-02T20:33:33.745Z,3.88
2023-02-02T20:36:03.090Z,3.38
2023-02-02T20:38:38.790Z,3.22
2023-02-02T20:41:07.148Z,3.40
2023-02-02T20:43:35.864Z,2.72
2023-02-02T20:46:04.481Z,3.22
2023-02-02T20:48:32.583Z,2.80
2023-02-02T20:51:00.784Z,2.78
2023-02-02T20:53:28.851Z,2.92
2023-02-02T20:56:00.113Z,2.72
2023-02-02T20:58:28.105Z,2.85
